sensor_id;sensor_type;location;lat;lon;timestamp;P1;durP1;ratioP1;P2;durP2;ratioP2
67041;SDS011;53949;47.790;18.750;2023-04-25T00:02:12;1.75;;;1.65;;
67041;SDS011;53949;47.790;18.750;2023-04-25T00:05:16;1.80;;;1.62;;
67041;SDS011;53949;47.790;18.750;2023-04-25T00:08:20;2.05;;;1.77;;
67041;SDS011;53949;47.790;18.750;2023-04-25T00:11:23;1.52;;;1.42;;
67041;SDS011;53949;47.790;18.750;2023-04-25T00:14:27;2.55;;;2.00;;
67041;SDS011;53949;47.790;18.750;2023-04-25T00:17:30;2.33;;;2.08;;
67041;SDS011;53949;47.790;18.750;2023-04-25T00:20:34;2.40;;;2.20;;
67041;SDS011;53949;47.790;18.750;2023-04-25T00:23:38;1.97;;;1.87;;
67041;SDS011;53949;47.790;18.750;2023-04-25T00:26:41;2.45;;;2.22;;
67041;SDS011;53949;47.790;18.750;2023-04-25T00:29:45;2.35;;;2.15;;
67041;SDS011;53949;47.790;18.750;2023-04-25T00:32:48;2.33;;;2.12;;
67041;SDS011;53949;47.790;18.750;2023-04-25T00:35:51;2.08;;;1.98;;
67041;SDS011;53949;47.790;18.750;2023-04-25T00:38:54;4.07;;;2.65;;
67041;SDS011;53949;47.790;18.750;2023-04-25T00:41:58;3.08;;;2.20;;
67041;SDS011;53949;47.790;18.750;2023-04-25T00:45:01;3.37;;;2.20;;
67041;SDS011;53949;47.790;18.750;2023-04-25T00:48:07;1.92;;;1.80;;
67041;SDS011;53949;47.790;18.750;2023-04-25T00:51:11;2.20;;;2.00;;
67041;SDS011;53949;47.790;18.750;2023-04-25T00:54:17;4.00;;;1.80;;
67041;SDS011;53949;47.790;18.750;2023-04-25T00:57:20;1.83;;;1.70;;
67041;SDS011;53949;47.790;18.750;2023-04-25T01:00:23;1.65;;;1.55;;
67041;SDS011;53949;47.790;18.750;2023-04-25T01:03:28;2.30;;;2.10;;
67041;SDS011;53949;47.790;18.750;2023-04-25T01:06:33;2.42;;;2.10;;
67041;SDS011;53949;47.790;18.750;2023-04-25T01:09:38;2.42;;;2.15;;
67041;SDS011;53949;47.790;18.750;2023-04-25T01:12:41;3.53;;;1.92;;
67041;SDS011;53949;47.790;18.750;2023-04-25T01:15:44;2.42;;;2.10;;
67041;SDS011;53949;47.790;18.750;2023-04-25T01:18:48;2.55;;;1.77;;
67041;SDS011;53949;47.790;18.750;2023-04-25T01:21:51;3.75;;;2.20;;
67041;SDS011;53949;47.790;18.750;2023-04-25T01:24:55;2.40;;;2.20;;
67041;SDS011;53949;47.790;18.750;2023-04-25T01:27:58;2.15;;;1.90;;
67041;SDS011;53949;47.790;18.750;2023-04-25T01:31:02;4.00;;;2.50;;
67041;SDS011;53949;47.790;18.750;2023-04-25T01:34:05;1.80;;;1.67;;
67041;SDS011;53949;47.790;18.750;2023-04-25T01:37:08;2.37;;;2.17;;
67041;SDS011;53949;47.790;18.750;2023-04-25T01:40:12;2.40;;;2.20;;
67041;SDS011;53949;47.790;18.750;2023-04-25T01:43:16;4.18;;;3.30;;
67041;SDS011;53949;47.790;18.750;2023-04-25T01:46:19;4.53;;;2.30;;
67041;SDS011;53949;47.790;18.750;2023-04-25T01:49:22;2.78;;;2.55;;
67041;SDS011;53949;47.790;18.750;2023-04-25T01:52:26;2.60;;;2.37;;
67041;SDS011;53949;47.790;18.750;2023-04-25T01:55:31;3.42;;;2.45;;
67041;SDS011;53949;47.790;18.750;2023-04-25T01:58:36;2.90;;;2.42;;
67041;SDS011;53949;47.790;18.750;2023-04-25T02:01:40;3.22;;;2.60;;
67041;SDS011;53949;47.790;18.750;2023-04-25T02:04:44;4.78;;;2.60;;
67041;SDS011;53949;47.790;18.750;2023-04-25T02:07:48;3.60;;;2.97;;
67041;SDS011;53949;47.790;18.750;2023-04-25T02:10:51;3.08;;;2.42;;
67041;SDS011;53949;47.790;18.750;2023-04-25T02:13:54;2.50;;;2.30;;
67041;SDS011;53949;47.790;18.750;2023-04-25T02:16:57;3.53;;;2.40;;
67041;SDS011;53949;47.790;18.750;2023-04-25T02:20:01;3.72;;;2.55;;
67041;SDS011;53949;47.790;18.750;2023-04-25T02:23:04;3.22;;;2.87;;
67041;SDS011;53949;47.790;18.750;2023-04-25T02:26:07;3.10;;;2.80;;
67041;SDS011;53949;47.790;18.750;2023-04-25T02:29:10;4.65;;;3.30;;
67041;SDS011;53949;47.790;18.750;2023-04-25T02:32:14;3.12;;;2.83;;
67041;SDS011;53949;47.790;18.750;2023-04-25T02:35:18;4.60;;;3.25;;
67041;SDS011;53949;47.790;18.750;2023-04-25T02:38:21;4.20;;;2.57;;
67041;SDS011;53949;47.790;18.750;2023-04-25T02:41:24;3.55;;;2.78;;
67041;SDS011;53949;47.790;18.750;2023-04-25T02:44:30;5.07;;;2.45;;
67041;SDS011;53949;47.790;18.750;2023-04-25T02:47:33;3.72;;;2.28;;
67041;SDS011;53949;47.790;18.750;2023-04-25T02:50:36;3.20;;;2.37;;
67041;SDS011;53949;47.790;18.750;2023-04-25T02:53:39;2.08;;;1.80;;
67041;SDS011;53949;47.790;18.750;2023-04-25T02:56:42;3.28;;;2.97;;
67041;SDS011;53949;47.790;18.750;2023-04-25T02:59:46;2.53;;;2.33;;
67041;SDS011;53949;47.790;18.750;2023-04-25T03:02:50;4.07;;;2.95;;
67041;SDS011;53949;47.790;18.750;2023-04-25T03:05:53;3.12;;;2.83;;
67041;SDS011;53949;47.790;18.750;2023-04-25T03:08:57;6.10;;;2.92;;
67041;SDS011;53949;47.790;18.750;2023-04-25T03:12:00;3.37;;;3.08;;
67041;SDS011;53949;47.790;18.750;2023-04-25T03:15:07;3.97;;;2.97;;
67041;SDS011;53949;47.790;18.750;2023-04-25T03:18:10;3.20;;;2.90;;
67041;SDS011;53949;47.790;18.750;2023-04-25T03:21:14;4.72;;;2.70;;
67041;SDS011;53949;47.790;18.750;2023-04-25T03:24:17;3.80;;;2.83;;
67041;SDS011;53949;47.790;18.750;2023-04-25T03:27:20;3.70;;;3.03;;
67041;SDS011;53949;47.790;18.750;2023-04-25T03:30:24;3.00;;;2.70;;
67041;SDS011;53949;47.790;18.750;2023-04-25T03:33:27;5.50;;;3.00;;
67041;SDS011;53949;47.790;18.750;2023-04-25T03:36:30;1.73;;;1.62;;
67041;SDS011;53949;47.790;18.750;2023-04-25T03:39:35;4.22;;;3.50;;
67041;SDS011;53949;47.790;18.750;2023-04-25T03:42:38;4.00;;;3.12;;
67041;SDS011;53949;47.790;18.750;2023-04-25T03:45:41;4.07;;;2.87;;
67041;SDS011;53949;47.790;18.750;2023-04-25T03:48:44;7.70;;;3.03;;
67041;SDS011;53949;47.790;18.750;2023-04-25T03:51:49;4.63;;;3.07;;
67041;SDS011;53949;47.790;18.750;2023-04-25T03:54:52;3.53;;;2.97;;
67041;SDS011;53949;47.790;18.750;2023-04-25T03:57:57;4.28;;;2.65;;
67041;SDS011;53949;47.790;18.750;2023-04-25T04:01:00;3.95;;;3.05;;
67041;SDS011;53949;47.790;18.750;2023-04-25T04:04:06;3.55;;;2.97;;
67041;SDS011;53949;47.790;18.750;2023-04-25T04:07:10;4.10;;;2.85;;
67041;SDS011;53949;47.790;18.750;2023-04-25T04:10:14;4.32;;;3.08;;
67041;SDS011;53949;47.790;18.750;2023-04-25T04:13:17;3.97;;;3.12;;
67041;SDS011;53949;47.790;18.750;2023-04-25T04:16:20;4.65;;;3.50;;
67041;SDS011;53949;47.790;18.750;2023-04-25T04:19:25;3.53;;;3.22;;
67041;SDS011;53949;47.790;18.750;2023-04-25T04:25:33;3.08;;;2.78;;
67041;SDS011;53949;47.790;18.750;2023-04-25T04:28:37;5.10;;;2.72;;
67041;SDS011;53949;47.790;18.750;2023-04-25T04:31:40;3.17;;;2.75;;
67041;SDS011;53949;47.790;18.750;2023-04-25T04:34:44;4.55;;;2.53;;
67041;SDS011;53949;47.790;18.750;2023-04-25T04:37:49;3.30;;;2.78;;
67041;SDS011;53949;47.790;18.750;2023-04-25T04:40:53;2.50;;;2.30;;
67041;SDS011;53949;47.790;18.750;2023-04-25T04:43:56;4.75;;;3.20;;
67041;SDS011;53949;47.790;18.750;2023-04-25T04:47:02;3.90;;;3.05;;
67041;SDS011;53949;47.790;18.750;2023-04-25T04:50:09;4.80;;;3.55;;
67041;SDS011;53949;47.790;18.750;2023-04-25T04:53:13;4.30;;;3.03;;
67041;SDS011;53949;47.790;18.750;2023-04-25T04:56:17;4.78;;;2.60;;
67041;SDS011;53949;47.790;18.750;2023-04-25T04:59:22;7.80;;;3.47;;
67041;SDS011;53949;47.790;18.750;2023-04-25T05:02:25;3.40;;;3.10;;
67041;SDS011;53949;47.790;18.750;2023-04-25T05:05:29;4.55;;;3.28;;
67041;SDS011;53949;47.790;18.750;2023-04-25T05:08:36;3.22;;;2.83;;
67041;SDS011;53949;47.790;18.750;2023-04-25T05:11:40;6.30;;;3.58;;
67041;SDS011;53949;47.790;18.750;2023-04-25T05:14:44;3.87;;;3.47;;
67041;SDS011;53949;47.790;18.750;2023-04-25T05:17:48;3.85;;;3.45;;
67041;SDS011;53949;47.790;18.750;2023-04-25T05:20:51;6.03;;;3.42;;
67041;SDS011;53949;47.790;18.750;2023-04-25T05:23:56;4.43;;;3.60;;
67041;SDS011;53949;47.790;18.750;2023-04-25T05:27:00;3.72;;;3.30;;
67041;SDS011;53949;47.790;18.750;2023-04-25T05:30:04;4.32;;;3.45;;
67041;SDS011;53949;47.790;18.750;2023-04-25T05:33:08;3.80;;;3.22;;
67041;SDS011;53949;47.790;18.750;2023-04-25T05:36:13;5.10;;;2.93;;
67041;SDS011;53949;47.790;18.750;2023-04-25T05:39:16;3.85;;;3.42;;
67041;SDS011;53949;47.790;18.750;2023-04-25T05:42:20;3.67;;;3.15;;
67041;SDS011;53949;47.790;18.750;2023-04-25T05:45:24;5.22;;;3.58;;
67041;SDS011;53949;47.790;18.750;2023-04-25T05:48:27;3.50;;;3.20;;
67041;SDS011;53949;47.790;18.750;2023-04-25T05:51:31;3.35;;;3.05;;
67041;SDS011;53949;47.790;18.750;2023-04-25T05:54:34;6.43;;;3.35;;
67041;SDS011;53949;47.790;18.750;2023-04-25T05:57:37;3.30;;;3.00;;
67041;SDS011;53949;47.790;18.750;2023-04-25T06:00:44;3.37;;;3.08;;
67041;SDS011;53949;47.790;18.750;2023-04-25T06:03:47;3.12;;;2.83;;
67041;SDS011;53949;47.790;18.750;2023-04-25T06:06:51;3.83;;;3.43;;
67041;SDS011;53949;47.790;18.750;2023-04-25T06:09:57;3.67;;;3.22;;
67041;SDS011;53949;47.790;18.750;2023-04-25T06:13:00;3.35;;;3.03;;
67041;SDS011;53949;47.790;18.750;2023-04-25T06:16:04;5.78;;;3.22;;
67041;SDS011;53949;47.790;18.750;2023-04-25T06:19:07;3.53;;;3.22;;
67041;SDS011;53949;47.790;18.750;2023-04-25T06:22:11;4.20;;;3.55;;
67041;SDS011;53949;47.790;18.750;2023-04-25T06:25:15;3.15;;;2.85;;
67041;SDS011;53949;47.790;18.750;2023-04-25T06:28:19;3.10;;;2.80;;
67041;SDS011;53949;47.790;18.750;2023-04-25T06:31:24;3.80;;;3.15;;
67041;SDS011;53949;47.790;18.750;2023-04-25T06:34:29;3.70;;;3.15;;
67041;SDS011;53949;47.790;18.750;2023-04-25T06:37:34;4.07;;;3.67;;
67041;SDS011;53949;47.790;18.750;2023-04-25T06:40:37;5.55;;;3.60;;
67041;SDS011;53949;47.790;18.750;2023-04-25T06:43:41;3.40;;;3.05;;
67041;SDS011;53949;47.790;18.750;2023-04-25T06:46:44;3.80;;;3.10;;
67041;SDS011;53949;47.790;18.750;2023-04-25T06:49:48;4.45;;;3.30;;
67041;SDS011;53949;47.790;18.750;2023-04-25T06:52:52;4.03;;;3.20;;
67041;SDS011;53949;47.790;18.750;2023-04-25T06:55:55;4.18;;;2.85;;
67041;SDS011;53949;47.790;18.750;2023-04-25T06:59:00;5.55;;;3.22;;
67041;SDS011;53949;47.790;18.750;2023-04-25T07:02:03;3.97;;;3.40;;
67041;SDS011;53949;47.790;18.750;2023-04-25T07:05:07;4.57;;;3.05;;
67041;SDS011;53949;47.790;18.750;2023-04-25T07:08:10;3.12;;;2.83;;
67041;SDS011;53949;47.790;18.750;2023-04-25T07:11:13;4.37;;;2.92;;
67041;SDS011;53949;47.790;18.750;2023-04-25T07:14:17;3.33;;;2.90;;
67041;SDS011;53949;47.790;18.750;2023-04-25T07:17:21;3.85;;;2.78;;
67041;SDS011;53949;47.790;18.750;2023-04-25T07:20:24;3.75;;;3.37;;
67041;SDS011;53949;47.790;18.750;2023-04-25T07:23:28;4.15;;;3.65;;
67041;SDS011;53949;47.790;18.750;2023-04-25T07:29:38;7.03;;;4.00;;
67041;SDS011;53949;47.790;18.750;2023-04-25T07:32:41;3.47;;;2.70;;
67041;SDS011;53949;47.790;18.750;2023-04-25T07:35:45;3.30;;;2.35;;
67041;SDS011;53949;47.790;18.750;2023-04-25T07:38:48;3.58;;;2.75;;
67041;SDS011;53949;47.790;18.750;2023-04-25T07:41:52;4.62;;;3.40;;
67041;SDS011;53949;47.790;18.750;2023-04-25T07:44:57;5.50;;;2.75;;
67041;SDS011;53949;47.790;18.750;2023-04-25T07:48:01;3.42;;;2.72;;
67041;SDS011;53949;47.790;18.750;2023-04-25T07:51:06;4.35;;;3.95;;
67041;SDS011;53949;47.790;18.750;2023-04-25T07:54:14;5.50;;;3.53;;
67041;SDS011;53949;47.790;18.750;2023-04-25T07:57:19;3.35;;;3.03;;
67041;SDS011;53949;47.790;18.750;2023-04-25T08:00:23;3.00;;;2.43;;
67041;SDS011;53949;47.790;18.750;2023-04-25T08:03:27;3.50;;;2.25;;
67041;SDS011;53949;47.790;18.750;2023-04-25T08:06:30;4.37;;;3.55;;
67041;SDS011;53949;47.790;18.750;2023-04-25T08:09:35;3.30;;;2.45;;
67041;SDS011;53949;47.790;18.750;2023-04-25T08:12:39;2.60;;;2.37;;
67041;SDS011;53949;47.790;18.750;2023-04-25T08:15:43;3.15;;;2.90;;
67041;SDS011;53949;47.790;18.750;2023-04-25T08:18:46;4.60;;;3.72;;
67041;SDS011;53949;47.790;18.750;2023-04-25T08:21:49;3.78;;;3.40;;
67041;SDS011;53949;47.790;18.750;2023-04-25T08:24:55;3.92;;;3.20;;
67041;SDS011;53949;47.790;18.750;2023-04-25T08:27:59;4.15;;;3.70;;
67041;SDS011;53949;47.790;18.750;2023-04-25T08:31:05;4.80;;;3.55;;
67041;SDS011;53949;47.790;18.750;2023-04-25T08:34:09;3.70;;;3.33;;
67041;SDS011;53949;47.790;18.750;2023-04-25T08:37:12;3.92;;;3.37;;
67041;SDS011;53949;47.790;18.750;2023-04-25T08:40:15;3.72;;;3.42;;
67041;SDS011;53949;47.790;18.750;2023-04-25T08:43:19;2.95;;;2.75;;
67041;SDS011;53949;47.790;18.750;2023-04-25T08:46:23;3.65;;;3.28;;
67041;SDS011;53949;47.790;18.750;2023-04-25T08:49:27;4.53;;;2.78;;
67041;SDS011;53949;47.790;18.750;2023-04-25T08:52:32;3.50;;;3.20;;
67041;SDS011;53949;47.790;18.750;2023-04-25T08:55:40;4.50;;;3.17;;
67041;SDS011;53949;47.790;18.750;2023-04-25T08:58:44;4.77;;;3.20;;
67041;SDS011;53949;47.790;18.750;2023-04-25T09:01:49;4.55;;;3.25;;
67041;SDS011;53949;47.790;18.750;2023-04-25T09:04:54;4.87;;;3.75;;
67041;SDS011;53949;47.790;18.750;2023-04-25T09:07:58;3.95;;;3.55;;
67041;SDS011;53949;47.790;18.750;2023-04-25T09:11:01;3.25;;;2.95;;
67041;SDS011;53949;47.790;18.750;2023-04-25T09:17:17;2.67;;;2.47;;
67041;SDS011;53949;47.790;18.750;2023-04-25T09:20:20;2.50;;;2.30;;
67041;SDS011;53949;47.790;18.750;2023-04-25T09:23:24;1.77;;;1.67;;
67041;SDS011;53949;47.790;18.750;2023-04-25T09:26:27;2.28;;;2.08;;
67041;SDS011;53949;47.790;18.750;2023-04-25T09:29:34;2.30;;;2.10;;
67041;SDS011;53949;47.790;18.750;2023-04-25T09:32:39;1.87;;;1.77;;
67041;SDS011;53949;47.790;18.750;2023-04-25T09:35:43;1.92;;;1.65;;
67041;SDS011;53949;47.790;18.750;2023-04-25T09:38:48;0.93;;;0.93;;
67041;SDS011;53949;47.790;18.750;2023-04-25T09:41:55;2.12;;;1.92;;
67041;SDS011;53949;47.790;18.750;2023-04-25T09:44:58;1.30;;;1.20;;
67041;SDS011;53949;47.790;18.750;2023-04-25T09:48:06;1.08;;;1.00;;
67041;SDS011;53949;47.790;18.750;2023-04-25T09:51:13;1.40;;;1.08;;
67041;SDS011;53949;47.790;18.750;2023-04-25T09:54:17;1.67;;;0.90;;
67041;SDS011;53949;47.790;18.750;2023-04-25T09:57:24;0.80;;;0.80;;
67041;SDS011;53949;47.790;18.750;2023-04-25T10:00:29;1.30;;;0.73;;
67041;SDS011;53949;47.790;18.750;2023-04-25T10:03:40;0.85;;;0.65;;
67041;SDS011;53949;47.790;18.750;2023-04-25T10:06:44;0.98;;;0.60;;
67041;SDS011;53949;47.790;18.750;2023-04-25T10:09:49;0.62;;;0.60;;
67041;SDS011;53949;47.790;18.750;2023-04-25T10:12:57;0.50;;;0.50;;
67041;SDS011;53949;47.790;18.750;2023-04-25T10:16:02;0.47;;;0.47;;
67041;SDS011;53949;47.790;18.750;2023-04-25T10:19:06;0.50;;;0.50;;
67041;SDS011;53949;47.790;18.750;2023-04-25T10:22:14;0.47;;;0.47;;
67041;SDS011;53949;47.790;18.750;2023-04-25T10:25:21;0.73;;;0.62;;
67041;SDS011;53949;47.790;18.750;2023-04-25T10:28:25;0.60;;;0.60;;
67041;SDS011;53949;47.790;18.750;2023-04-25T10:31:29;0.45;;;0.45;;
67041;SDS011;53949;47.790;18.750;2023-04-25T10:34:43;0.50;;;0.50;;
67041;SDS011;53949;47.790;18.750;2023-04-25T10:41:09;0.52;;;0.50;;
67041;SDS011;53949;47.790;18.750;2023-04-25T10:44:14;0.68;;;0.60;;
67041;SDS011;53949;47.790;18.750;2023-04-25T10:47:18;0.60;;;0.60;;
67041;SDS011;53949;47.790;18.750;2023-04-25T10:50:37;0.50;;;0.50;;
67041;SDS011;53949;47.790;18.750;2023-04-25T10:53:45;0.40;;;0.40;;
67041;SDS011;53949;47.790;18.750;2023-04-25T10:56:49;0.60;;;0.60;;
67041;SDS011;53949;47.790;18.750;2023-04-25T10:59:53;0.50;;;0.50;;
67041;SDS011;53949;47.790;18.750;2023-04-25T11:02:59;0.62;;;0.62;;
67041;SDS011;53949;47.790;18.750;2023-04-25T11:06:04;0.70;;;0.70;;
67041;SDS011;53949;47.790;18.750;2023-04-25T11:09:11;0.60;;;0.60;;
67041;SDS011;53949;47.790;18.750;2023-04-25T11:12:18;3.10;;;0.60;;
67041;SDS011;53949;47.790;18.750;2023-04-25T11:15:21;0.70;;;0.70;;
67041;SDS011;53949;47.790;18.750;2023-04-25T11:18:25;0.50;;;0.50;;
67041;SDS011;53949;47.790;18.750;2023-04-25T11:21:30;0.60;;;0.60;;
67041;SDS011;53949;47.790;18.750;2023-04-25T11:24:35;0.50;;;0.50;;
67041;SDS011;53949;47.790;18.750;2023-04-25T11:27:54;0.68;;;0.68;;
67041;SDS011;53949;47.790;18.750;2023-04-25T11:31:00;0.98;;;0.88;;
67041;SDS011;53949;47.790;18.750;2023-04-25T11:34:04;0.70;;;0.70;;
67041;SDS011;53949;47.790;18.750;2023-04-25T11:37:07;0.95;;;0.95;;
67041;SDS011;53949;47.790;18.750;2023-04-25T11:40:10;1.00;;;1.00;;
67041;SDS011;53949;47.790;18.750;2023-04-25T11:43:14;0.70;;;0.70;;
67041;SDS011;53949;47.790;18.750;2023-04-25T11:46:18;2.92;;;1.00;;
67041;SDS011;53949;47.790;18.750;2023-04-25T11:49:23;0.90;;;0.90;;
67041;SDS011;53949;47.790;18.750;2023-04-25T11:52:40;0.80;;;0.80;;
67041;SDS011;53949;47.790;18.750;2023-04-25T11:55:45;2.33;;;0.85;;
67041;SDS011;53949;47.790;18.750;2023-04-25T11:58:56;1.00;;;0.90;;
67041;SDS011;53949;47.790;18.750;2023-04-25T12:02:00;1.10;;;1.10;;
67041;SDS011;53949;47.790;18.750;2023-04-25T12:05:08;1.13;;;1.10;;
67041;SDS011;53949;47.790;18.750;2023-04-25T12:08:32;1.05;;;1.05;;
67041;SDS011;53949;47.790;18.750;2023-04-25T12:11:42;1.15;;;0.85;;
67041;SDS011;53949;47.790;18.750;2023-04-25T12:14:46;1.50;;;1.40;;
67041;SDS011;53949;47.790;18.750;2023-04-25T12:17:52;1.30;;;1.20;;
67041;SDS011;53949;47.790;18.750;2023-04-25T12:20:59;0.85;;;0.85;;
67041;SDS011;53949;47.790;18.750;2023-04-25T12:24:09;2.40;;;1.17;;
67041;SDS011;53949;47.790;18.750;2023-04-25T12:27:16;1.00;;;1.00;;
67041;SDS011;53949;47.790;18.750;2023-04-25T12:30:22;0.93;;;0.93;;
67041;SDS011;53949;47.790;18.750;2023-04-25T12:33:27;1.40;;;1.20;;
67041;SDS011;53949;47.790;18.750;2023-04-25T12:36:32;1.40;;;1.00;;
67041;SDS011;53949;47.790;18.750;2023-04-25T12:39:35;1.33;;;0.82;;
67041;SDS011;53949;47.790;18.750;2023-04-25T12:42:39;2.17;;;1.10;;
67041;SDS011;53949;47.790;18.750;2023-04-25T12:45:44;0.95;;;0.95;;
67041;SDS011;53949;47.790;18.750;2023-04-25T12:48:50;1.40;;;1.30;;
67041;SDS011;53949;47.790;18.750;2023-04-25T12:51:53;1.27;;;1.08;;
67041;SDS011;53949;47.790;18.750;2023-04-25T12:54:57;0.90;;;0.90;;
67041;SDS011;53949;47.790;18.750;2023-04-25T12:58:00;1.20;;;1.17;;
67041;SDS011;53949;47.790;18.750;2023-04-25T13:01:03;1.42;;;1.35;;
67041;SDS011;53949;47.790;18.750;2023-04-25T13:04:07;0.98;;;0.98;;
67041;SDS011;53949;47.790;18.750;2023-04-25T13:07:11;1.83;;;0.90;;
67041;SDS011;53949;47.790;18.750;2023-04-25T13:10:14;1.95;;;1.85;;
67041;SDS011;53949;47.790;18.750;2023-04-25T13:13:17;0.90;;;0.90;;
67041;SDS011;53949;47.790;18.750;2023-04-25T13:16:20;2.80;;;1.20;;
67041;SDS011;53949;47.790;18.750;2023-04-25T13:19:24;1.55;;;0.93;;
67041;SDS011;53949;47.790;18.750;2023-04-25T13:22:28;1.30;;;1.20;;
67041;SDS011;53949;47.790;18.750;2023-04-25T13:25:31;0.80;;;0.77;;
67041;SDS011;53949;47.790;18.750;2023-04-25T13:28:34;1.23;;;1.05;;
67041;SDS011;53949;47.790;18.750;2023-04-25T13:31:38;1.75;;;1.55;;
67041;SDS011;53949;47.790;18.750;2023-04-25T13:34:41;1.58;;;1.12;;
67041;SDS011;53949;47.790;18.750;2023-04-25T13:37:44;0.80;;;0.80;;
67041;SDS011;53949;47.790;18.750;2023-04-25T13:40:48;1.23;;;1.12;;
67041;SDS011;53949;47.790;18.750;2023-04-25T13:43:52;2.85;;;1.00;;
67041;SDS011;53949;47.790;18.750;2023-04-25T13:46:56;0.73;;;0.73;;
67041;SDS011;53949;47.790;18.750;2023-04-25T13:49:59;4.15;;;0.90;;
67041;SDS011;53949;47.790;18.750;2023-04-25T13:53:05;0.80;;;0.80;;
67041;SDS011;53949;47.790;18.750;2023-04-25T13:56:08;0.98;;;0.73;;
67041;SDS011;53949;47.790;18.750;2023-04-25T13:59:11;1.52;;;1.00;;
67041;SDS011;53949;47.790;18.750;2023-04-25T14:02:14;2.37;;;0.80;;
67041;SDS011;53949;47.790;18.750;2023-04-25T14:05:17;0.90;;;0.90;;
67041;SDS011;53949;47.790;18.750;2023-04-25T14:08:20;1.52;;;0.80;;
67041;SDS011;53949;47.790;18.750;2023-04-25T14:11:24;0.98;;;0.95;;
67041;SDS011;53949;47.790;18.750;2023-04-25T14:14:27;1.80;;;1.00;;
67041;SDS011;53949;47.790;18.750;2023-04-25T14:17:31;0.80;;;0.80;;
67041;SDS011;53949;47.790;18.750;2023-04-25T14:20:34;1.23;;;0.85;;
67041;SDS011;53949;47.790;18.750;2023-04-25T14:23:38;1.02;;;1.00;;
67041;SDS011;53949;47.790;18.750;2023-04-25T14:26:41;1.00;;;1.00;;
67041;SDS011;53949;47.790;18.750;2023-04-25T14:29:45;1.57;;;0.90;;
67041;SDS011;53949;47.790;18.750;2023-04-25T14:32:48;2.37;;;0.98;;
67041;SDS011;53949;47.790;18.750;2023-04-25T14:35:52;1.50;;;0.93;;
67041;SDS011;53949;47.790;18.750;2023-04-25T14:38:55;0.90;;;0.90;;
67041;SDS011;53949;47.790;18.750;2023-04-25T14:41:58;1.67;;;0.90;;
67041;SDS011;53949;47.790;18.750;2023-04-25T14:45:03;1.48;;;1.10;;
67041;SDS011;53949;47.790;18.750;2023-04-25T14:48:07;1.80;;;1.08;;
67041;SDS011;53949;47.790;18.750;2023-04-25T14:51:10;1.52;;;1.10;;
67041;SDS011;53949;47.790;18.750;2023-04-25T14:54:13;1.70;;;1.02;;
67041;SDS011;53949;47.790;18.750;2023-04-25T14:57:16;1.20;;;1.10;;
67041;SDS011;53949;47.790;18.750;2023-04-25T15:00:21;1.00;;;1.00;;
67041;SDS011;53949;47.790;18.750;2023-04-25T15:03:25;3.15;;;1.30;;
67041;SDS011;53949;47.790;18.750;2023-04-25T15:06:28;3.47;;;1.45;;
67041;SDS011;53949;47.790;18.750;2023-04-25T15:09:32;1.40;;;1.17;;
67041;SDS011;53949;47.790;18.750;2023-04-25T15:12:36;1.45;;;1.35;;
67041;SDS011;53949;47.790;18.750;2023-04-25T15:15:39;1.60;;;1.30;;
67041;SDS011;53949;47.790;18.750;2023-04-25T15:18:43;2.62;;;1.40;;
67041;SDS011;53949;47.790;18.750;2023-04-25T15:21:46;1.52;;;1.40;;
67041;SDS011;53949;47.790;18.750;2023-04-25T15:24:50;3.50;;;2.60;;
67041;SDS011;53949;47.790;18.750;2023-04-25T15:27:53;6.82;;;2.85;;
67041;SDS011;53949;47.790;18.750;2023-04-25T15:30:57;5.32;;;3.08;;
67041;SDS011;53949;47.790;18.750;2023-04-25T15:34:00;3.80;;;3.17;;
67041;SDS011;53949;47.790;18.750;2023-04-25T15:37:03;2.58;;;2.37;;
67041;SDS011;53949;47.790;18.750;2023-04-25T15:40:07;2.62;;;2.28;;
67041;SDS011;53949;47.790;18.750;2023-04-25T15:43:12;3.47;;;2.58;;
67041;SDS011;53949;47.790;18.750;2023-04-25T15:46:17;4.53;;;2.42;;
67041;SDS011;53949;47.790;18.750;2023-04-25T15:49:21;3.85;;;2.37;;
67041;SDS011;53949;47.790;18.750;2023-04-25T15:52:25;2.80;;;2.58;;
67041;SDS011;53949;47.790;18.750;2023-04-25T15:55:30;2.33;;;2.12;;
67041;SDS011;53949;47.790;18.750;2023-04-25T15:58:33;4.22;;;2.60;;
67041;SDS011;53949;47.790;18.750;2023-04-25T16:01:37;5.72;;;2.47;;
67041;SDS011;53949;47.790;18.750;2023-04-25T16:04:42;4.13;;;2.57;;
67041;SDS011;53949;47.790;18.750;2023-04-25T16:07:45;2.83;;;2.45;;
67041;SDS011;53949;47.790;18.750;2023-04-25T16:10:49;3.80;;;2.37;;
67041;SDS011;53949;47.790;18.750;2023-04-25T16:13:52;5.57;;;1.80;;
67041;SDS011;53949;47.790;18.750;2023-04-25T16:16:55;2.30;;;1.92;;
67041;SDS011;53949;47.790;18.750;2023-04-25T16:19:58;2.22;;;1.33;;
67041;SDS011;53949;47.790;18.750;2023-04-25T16:23:03;1.55;;;1.20;;
67041;SDS011;53949;47.790;18.750;2023-04-25T16:26:06;1.95;;;1.10;;
67041;SDS011;53949;47.790;18.750;2023-04-25T16:29:10;1.20;;;1.20;;
67041;SDS011;53949;47.790;18.750;2023-04-25T16:32:16;2.20;;;1.30;;
67041;SDS011;53949;47.790;18.750;2023-04-25T16:35:20;1.30;;;1.20;;
67041;SDS011;53949;47.790;18.750;2023-04-25T16:38:23;1.80;;;1.10;;
67041;SDS011;53949;47.790;18.750;2023-04-25T16:41:28;1.20;;;1.10;;
67041;SDS011;53949;47.790;18.750;2023-04-25T16:44:31;1.85;;;1.15;;
67041;SDS011;53949;47.790;18.750;2023-04-25T16:47:36;1.23;;;1.12;;
67041;SDS011;53949;47.790;18.750;2023-04-25T16:50:40;1.67;;;1.40;;
67041;SDS011;53949;47.790;18.750;2023-04-25T16:53:43;1.58;;;1.48;;
67041;SDS011;53949;47.790;18.750;2023-04-25T16:56:48;1.60;;;1.50;;
67041;SDS011;53949;47.790;18.750;2023-04-25T16:59:51;5.57;;;1.90;;
67041;SDS011;53949;47.790;18.750;2023-04-25T17:02:54;2.15;;;1.70;;
67041;SDS011;53949;47.790;18.750;2023-04-25T17:09:04;2.05;;;1.67;;
67041;SDS011;53949;47.790;18.750;2023-04-25T17:12:08;1.50;;;1.40;;
67041;SDS011;53949;47.790;18.750;2023-04-25T17:15:11;1.30;;;1.30;;
67041;SDS011;53949;47.790;18.750;2023-04-25T17:18:15;1.92;;;1.83;;
67041;SDS011;53949;47.790;18.750;2023-04-25T17:21:18;3.37;;;2.10;;
67041;SDS011;53949;47.790;18.750;2023-04-25T17:24:22;2.00;;;1.80;;
67041;SDS011;53949;47.790;18.750;2023-04-25T17:27:26;3.70;;;1.90;;
67041;SDS011;53949;47.790;18.750;2023-04-25T17:30:29;3.08;;;1.83;;
67041;SDS011;53949;47.790;18.750;2023-04-25T17:33:35;2.35;;;2.15;;
67041;SDS011;53949;47.790;18.750;2023-04-25T17:36:38;3.35;;;2.87;;
67041;SDS011;53949;47.790;18.750;2023-04-25T17:39:42;5.03;;;2.33;;
67041;SDS011;53949;47.790;18.750;2023-04-25T17:45:55;3.40;;;2.72;;
67041;SDS011;53949;47.790;18.750;2023-04-25T17:49:01;3.12;;;2.22;;
67041;SDS011;53949;47.790;18.750;2023-04-25T17:52:06;3.53;;;2.40;;
67041;SDS011;53949;47.790;18.750;2023-04-25T17:55:10;3.22;;;2.40;;
67041;SDS011;53949;47.790;18.750;2023-04-25T17:58:15;3.47;;;2.53;;
67041;SDS011;53949;47.790;18.750;2023-04-25T18:01:19;2.97;;;2.53;;
67041;SDS011;53949;47.790;18.750;2023-04-25T18:04:24;5.55;;;2.72;;
67041;SDS011;53949;47.790;18.750;2023-04-25T18:07:27;2.58;;;2.30;;
67041;SDS011;53949;47.790;18.750;2023-04-25T18:10:31;3.60;;;2.27;;
67041;SDS011;53949;47.790;18.750;2023-04-25T18:13:36;2.40;;;2.20;;
67041;SDS011;53949;47.790;18.750;2023-04-25T18:16:42;3.22;;;2.40;;
67041;SDS011;53949;47.790;18.750;2023-04-25T18:19:46;3.42;;;2.53;;
67041;SDS011;53949;47.790;18.750;2023-04-25T18:22:51;2.87;;;1.80;;
67041;SDS011;53949;47.790;18.750;2023-04-25T18:25:55;2.78;;;2.45;;
67041;SDS011;53949;47.790;18.750;2023-04-25T18:28:59;2.10;;;1.90;;
67041;SDS011;53949;47.790;18.750;2023-04-25T18:32:03;2.70;;;2.37;;